Carlisle, Louisiana
Current Conditions -  °F | °C
As of 7:55 AM on Monday 24 Nov 2014 (Local Time) from KNBG Reporting Station
Haze Haze  
Wind Chill: 67°   Ceiling: 25000
Heat Index: 67°   Visibility: 5mi
Dew Point: 63°   Wind: 5mph
Humidity: 87%   Direction: 280°W
Pressure: 29.84"   Gusts: NA
Location:  29.68°N, 89.95°W
Report Text: KNBG 241355Z 28004KT 5SM BR FEW007 SCT019 BKN250 19/17 A2984 RMK AO2 SLP105 T01940172 $
Loading
Personal Weather Stations






























Interactive Weather Map New forecast layout! Learn more

10-Day Weather Forecast

Advertisements
Track Severe Weather on mobile